Time;durP1;ratioP1;P1;durP2;ratioP2;P2;SDS_P1;SDS_P2;PMS_P1;PMS_P2;Temp;Humidity;BMP_temperature;BMP_pressure;BME280_temperature;BME280_humidity;BME280_pressure;Samples;Min_cycle;Max_cycle;Signal;HPM_P1;HPM_P2
2023/08/19 00:01:16;;;;;;;7.30;5.55;;;23.60;99.90;;;;;;6270565;22;20020;-72
2023/08/19 00:04:02;;;;;;;8.23;5.38;;;23.60;99.90;;;;;;6270959;22;20011;-72
2023/08/19 00:06:48;;;;;;;7.18;5.72;;;23.50;99.90;;;;;;6271456;22;20387;-72
2023/08/19 00:09:37;;;;;;;7.50;5.82;;;23.50;99.90;;;;;;6270211;22;20007;-73
2023/08/19 00:12:23;;;;;;;8.20;6.53;;;23.50;99.90;;;;;;6268913;22;20011;-72
2023/08/19 00:15:09;;;;;;;8.55;6.50;;;23.50;99.90;;;;;;6270811;22;20342;-72
2023/08/19 00:17:55;;;;;;;9.07;6.72;;;23.50;99.90;;;;;;6270437;22;20059;-72
2023/08/19 00:20:41;;;;;;;9.65;6.00;;;23.40;99.90;;;;;;6272432;22;20003;-72
2023/08/19 00:23:27;;;;;;;7.25;5.45;;;23.40;99.90;;;;;;6272317;22;20093;-73
2023/08/19 00:26:13;;;;;;;10.23;5.78;;;23.40;99.90;;;;;;6272823;22;20045;-72
2023/08/19 00:28:58;;;;;;;8.27;5.85;;;23.30;99.90;;;;;;6271515;22;20066;-72
2023/08/19 00:31:44;;;;;;;7.93;6.13;;;23.30;99.90;;;;;;6273373;22;20012;-71
2023/08/19 00:34:30;;;;;;;8.57;5.85;;;23.30;99.90;;;;;;6272477;22;20008;-71
2023/08/19 00:37:17;;;;;;;8.13;6.57;;;23.30;99.90;;;;;;6273503;22;20015;-71
2023/08/19 00:40:09;;;;;;;7.05;5.47;;;23.20;99.90;;;;;;6272114;22;20069;-72
2023/08/19 00:42:55;;;;;;;8.85;6.53;;;23.20;99.90;;;;;;6272477;22;20047;-74
2023/08/19 00:45:46;;;;;;;8.48;5.72;;;23.20;99.90;;;;;;6271892;22;20019;-73
2023/08/19 00:48:32;;;;;;;12.45;6.72;;;23.20;99.90;;;;;;6273003;22;20008;-72
2023/08/19 00:51:18;;;;;;;8.38;6.32;;;23.20;99.90;;;;;;6273034;22;20011;-72
2023/08/19 00:54:04;;;;;;;9.10;5.93;;;23.20;99.90;;;;;;6272493;22;20035;-74
2023/08/19 00:56:50;;;;;;;7.70;5.95;;;23.10;99.90;;;;;;6271743;22;20045;-75
2023/08/19 00:59:36;;;;;;;9.40;6.38;;;23.10;99.90;;;;;;6272537;22;20016;-74
2023/08/19 01:02:22;;;;;;;8.70;6.68;;;23.10;99.90;;;;;;6269602;22;20007;-74
2023/08/19 01:05:08;;;;;;;8.02;5.70;;;23.10;99.90;;;;;;6271858;22;20015;-74
2023/08/19 01:07:58;;;;;;;8.18;6.03;;;23.00;99.90;;;;;;6271346;22;20058;-74
2023/08/19 01:10:56;;;;;;;8.48;6.57;;;23.10;99.90;;;;;;6272853;22;20014;-74
2023/08/19 01:13:56;;;;;;;8.60;6.40;;;23.00;99.90;;;;;;6270370;22;20069;-74
2023/08/19 01:16:46;;;;;;;8.27;6.38;;;23.00;99.90;;;;;;6274070;22;20490;-73
2023/08/19 01:19:32;;;;;;;10.38;6.53;;;22.90;99.90;;;;;;6272851;22;20073;-73
2023/08/19 01:22:51;;;;;;;9.13;6.78;;;22.90;99.90;;;;;;6278175;22;20429;-73
2023/08/19 01:25:38;;;;;;;9.65;7.10;;;22.90;99.90;;;;;;6274220;22;20023;-74
2023/08/19 01:28:24;;;;;;;7.68;5.82;;;22.80;99.90;;;;;;6270902;22;20011;-74
2023/08/19 01:31:10;;;;;;;7.95;6.13;;;22.80;99.90;;;;;;6272136;22;20011;-73
2023/08/19 01:33:56;;;;;;;8.32;6.60;;;22.80;99.90;;;;;;6272568;22;20039;-73
2023/08/19 01:36:49;;;;;;;8.05;6.22;;;22.80;99.90;;;;;;6271991;22;20011;-73
2023/08/19 01:39:36;;;;;;;7.75;5.85;;;22.70;99.90;;;;;;6272801;22;20019;-73
2023/08/19 01:42:24;;;;;;;8.00;6.00;;;22.70;99.90;;;;;;6271976;22;20086;-73
2023/08/19 01:45:11;;;;;;;9.88;6.63;;;22.70;99.90;;;;;;6273931;22;20012;-73
2023/08/19 01:47:57;;;;;;;8.27;6.05;;;22.70;99.90;;;;;;6272277;22;20068;-73
2023/08/19 01:50:43;;;;;;;10.57;6.15;;;22.70;99.90;;;;;;6272541;22;20028;-73
2023/08/19 01:53:29;;;;;;;10.02;6.25;;;22.70;99.90;;;;;;6272266;22;20082;-70
2023/08/19 01:56:15;;;;;;;8.75;6.70;;;22.70;99.90;;;;;;6273434;22;20106;-71
2023/08/19 01:59:01;;;;;;;7.10;5.25;;;22.60;99.90;;;;;;6271807;22;20008;-71
2023/08/19 02:01:47;;;;;;;9.38;6.43;;;22.60;99.90;;;;;;6271741;22;20011;-70
2023/08/19 02:04:33;;;;;;;8.38;6.80;;;22.50;99.90;;;;;;6272273;22;20103;-70
2023/08/19 02:07:19;;;;;;;8.82;6.47;;;22.50;99.90;;;;;;6271208;22;20026;-71
2023/08/19 02:10:07;;;;;;;8.82;6.35;;;22.50;99.90;;;;;;6271003;22;20004;-71
2023/08/19 02:12:53;;;;;;;9.15;6.53;;;22.50;99.90;;;;;;6269338;22;20098;-71
2023/08/19 02:15:40;;;;;;;10.55;6.82;;;22.50;99.90;;;;;;6270393;22;20054;-71
2023/08/19 02:18:26;;;;;;;9.70;6.68;;;22.50;99.90;;;;;;6271670;22;20012;-73
2023/08/19 02:21:12;;;;;;;8.70;6.85;;;22.50;99.90;;;;;;6272554;22;20248;-74
2023/08/19 02:23:58;;;;;;;9.43;6.47;;;22.50;99.90;;;;;;6272117;22;20007;-74
2023/08/19 02:26:44;;;;;;;8.52;5.82;;;22.50;99.90;;;;;;6270161;22;20023;-73
2023/08/19 02:29:29;;;;;;;8.43;5.93;;;22.50;99.90;;;;;;6272098;22;20016;-73
2023/08/19 02:32:15;;;;;;;8.93;6.85;;;22.50;99.90;;;;;;6271508;22;20098;-73
2023/08/19 02:35:01;;;;;;;9.45;6.88;;;22.50;99.90;;;;;;6269858;22;20012;-73
2023/08/19 02:37:47;;;;;;;8.93;6.50;;;22.50;99.90;;;;;;6271098;22;20011;-73
2023/08/19 02:40:33;;;;;;;8.98;6.85;;;22.50;99.90;;;;;;6272247;22;20011;-73
2023/08/19 02:43:19;;;;;;;14.57;7.20;;;22.50;99.90;;;;;;6271409;22;20019;-73
2023/08/19 02:46:05;;;;;;;8.43;7.18;;;22.40;99.90;;;;;;6270166;22;20045;-73
2023/08/19 02:48:51;;;;;;;9.60;7.50;;;22.40;99.90;;;;;;6270586;22;20062;-73
2023/08/19 02:51:37;;;;;;;12.10;7.47;;;22.40;99.90;;;;;;6270462;22;20420;-74
2023/08/19 02:54:23;;;;;;;12.85;7.35;;;22.40;99.90;;;;;;6272244;22;20030;-74
2023/08/19 02:57:09;;;;;;;9.75;6.53;;;22.40;99.90;;;;;;6271322;22;20016;-71
2023/08/19 02:59:55;;;;;;;10.50;7.45;;;22.40;99.90;;;;;;6271526;22;20035;-71
2023/08/19 03:02:45;;;;;;;11.98;7.95;;;22.40;99.90;;;;;;6268310;22;20018;-71
2023/08/19 03:05:37;;;;;;;9.95;7.18;;;22.30;99.90;;;;;;6270280;22;20023;-71
2023/08/19 03:08:23;;;;;;;9.55;6.70;;;22.30;99.90;;;;;;6271598;22;20046;-71
2023/08/19 03:11:09;;;;;;;9.43;7.05;;;22.30;99.90;;;;;;6271828;22;20011;-70
2023/08/19 03:13:55;;;;;;;9.52;6.88;;;22.30;99.90;;;;;;6271547;22;20020;-70
2023/08/19 03:16:40;;;;;;;9.73;7.35;;;22.30;99.90;;;;;;6271040;22;20073;-70
2023/08/19 03:19:27;;;;;;;9.20;7.13;;;22.20;99.90;;;;;;6271790;22;20008;-70
2023/08/19 03:22:13;;;;;;;9.27;6.72;;;22.20;99.90;;;;;;6270835;22;20011;-71
2023/08/19 03:24:59;;;;;;;10.23;7.35;;;22.20;99.90;;;;;;6271990;22;20448;-70
2023/08/19 03:27:45;;;;;;;10.60;7.97;;;22.20;99.90;;;;;;6270470;22;20007;-70
2023/08/19 03:30:31;;;;;;;11.48;7.50;;;22.20;99.90;;;;;;6271140;22;20012;-70
2023/08/19 03:33:17;;;;;;;11.38;7.18;;;22.20;99.90;;;;;;6270211;22;20031;-71
2023/08/19 03:36:03;;;;;;;11.07;6.65;;;22.10;99.90;;;;;;6271863;22;20008;-70
2023/08/19 03:38:49;;;;;;;13.15;7.57;;;22.10;99.90;;;;;;6271368;22;20008;-71
2023/08/19 03:41:35;;;;;;;10.13;7.88;;;22.10;99.90;;;;;;6271313;22;20190;-71
2023/08/19 03:44:21;;;;;;;11.95;8.18;;;22.10;99.90;;;;;;6248344;22;20042;-71
2023/08/19 03:47:10;;;;;;;12.32;8.00;;;22.10;99.90;;;;;;6269560;22;20034;-71
2023/08/19 03:49:56;;;;;;;10.00;7.63;;;22.00;99.90;;;;;;6269899;22;20091;-71
2023/08/19 03:52:42;;;;;;;10.00;7.82;;;22.00;99.90;;;;;;6270708;22;20090;-70
2023/08/19 03:55:29;;;;;;;11.07;7.68;;;22.00;99.90;;;;;;6271466;22;20015;-70
2023/08/19 03:58:15;;;;;;;11.23;8.25;;;22.00;99.90;;;;;;6272705;22;20016;-70
2023/08/19 04:01:08;;;;;;;10.98;8.50;;;22.00;99.90;;;;;;6273199;22;20434;-70
2023/08/19 04:03:54;;;;;;;11.30;8.45;;;22.00;99.90;;;;;;6279075;22;20014;-70
2023/08/19 04:06:40;;;;;;;10.68;7.95;;;21.90;99.90;;;;;;6273409;22;20518;-71
2023/08/19 04:09:26;;;;;;;9.48;7.25;;;22.00;99.90;;;;;;6273948;22;20438;-71
2023/08/19 04:12:12;;;;;;;13.75;8.30;;;21.90;99.90;;;;;;6271601;22;20401;-71
2023/08/19 04:14:58;;;;;;;11.95;8.70;;;21.90;99.90;;;;;;6273291;22;20019;-70
2023/08/19 04:17:44;;;;;;;10.82;7.68;;;21.90;99.90;;;;;;6271291;22;20044;-70
2023/08/19 04:20:29;;;;;;;14.13;8.55;;;21.90;99.90;;;;;;6249417;22;20012;-70
2023/08/19 04:23:15;;;;;;;10.93;8.45;;;21.90;99.90;;;;;;6270335;22;20012;-68
2023/08/19 04:26:02;;;;;;;9.57;7.32;;;21.90;99.90;;;;;;6273615;22;20633;-74
2023/08/19 04:28:48;;;;;;;11.10;8.32;;;22.00;99.90;;;;;;6272821;22;20075;-70
2023/08/19 04:31:34;;;;;;;10.32;7.63;;;22.00;99.90;;;;;;6272946;22;20012;-68
2023/08/19 04:34:20;;;;;;;10.10;7.60;;;22.00;99.90;;;;;;6272965;22;20016;-71
2023/08/19 04:37:08;;;;;;;12.90;7.93;;;22.10;99.90;;;;;;6273573;22;20397;-70
2023/08/19 04:39:54;;;;;;;11.25;7.95;;;22.10;99.90;;;;;;6273151;22;20435;-73
2023/08/19 04:42:40;;;;;;;11.80;8.25;;;22.10;99.90;;;;;;6270859;22;20116;-73
2023/08/19 04:45:26;;;;;;;11.95;8.38;;;22.10;99.90;;;;;;6248300;22;20055;-72
2023/08/19 04:48:12;;;;;;;12.52;8.48;;;22.20;99.90;;;;;;6269372;22;20567;-73
2023/08/19 04:51:00;;;;;;;11.10;8.40;;;22.20;99.90;;;;;;6269832;22;20007;-73
2023/08/19 04:53:46;;;;;;;11.63;7.90;;;22.20;99.90;;;;;;6271645;22;20139;-73
2023/08/19 04:56:32;;;;;;;11.35;8.00;;;22.20;99.90;;;;;;6272732;22;20015;-72
2023/08/19 04:59:17;;;;;;;13.55;8.38;;;22.30;99.90;;;;;;6271801;22;20039;-73
2023/08/19 05:02:03;;;;;;;11.68;8.38;;;22.30;99.90;;;;;;6270436;22;20011;-73
2023/08/19 05:04:49;;;;;;;13.20;8.35;;;22.40;99.90;;;;;;6272795;22;20012;-72
2023/08/19 05:07:35;;;;;;;11.68;8.55;;;22.40;99.90;;;;;;6269887;22;20106;-72
2023/08/19 05:10:21;;;;;;;12.35;8.98;;;22.50;99.90;;;;;;6270830;22;20012;-72
2023/08/19 05:13:07;;;;;;;16.25;8.93;;;22.50;99.90;;;;;;6272126;22;20054;-73
2023/08/19 05:15:53;;;;;;;11.82;8.85;;;22.60;99.90;;;;;;6271610;22;20008;-73
2023/08/19 05:18:39;;;;;;;13.57;8.52;;;22.60;99.90;;;;;;6270722;22;20341;-71
2023/08/19 05:21:25;;;;;;;10.30;8.50;;;22.70;99.90;;;;;;6271026;22;20417;-71
2023/08/19 05:24:12;;;;;;;11.30;8.43;;;22.80;99.90;;;;;;6271740;22;20009;-71
2023/08/19 05:26:59;;;;;;;14.18;8.82;;;22.80;99.90;;;;;;6270540;22;20051;-71
2023/08/19 05:29:45;;;;;;;11.32;8.35;;;22.90;99.90;;;;;;6270915;22;20456;-72
2023/08/19 05:32:31;;;;;;;12.23;9.07;;;22.90;99.90;;;;;;6270443;22;20007;-72
2023/08/19 05:35:17;;;;;;;11.32;8.50;;;23.00;99.90;;;;;;6271457;22;20501;-72
2023/08/19 05:38:03;;;;;;;13.43;8.93;;;23.10;99.90;;;;;;6271967;22;20351;-73
2023/08/19 05:40:49;;;;;;;10.25;8.35;;;23.10;99.90;;;;;;6273001;22;20069;-73
2023/08/19 05:43:35;;;;;;;13.38;8.35;;;23.20;99.90;;;;;;6270581;22;20377;-73
2023/08/19 05:46:21;;;;;;;10.50;7.97;;;23.20;99.90;;;;;;6272442;22;20392;-70
2023/08/19 05:49:06;;;;;;;10.77;8.68;;;23.30;99.90;;;;;;6269824;22;20004;-70
2023/08/19 05:51:52;;;;;;;11.63;8.57;;;23.30;99.90;;;;;;6271849;22;20026;-70
2023/08/19 05:54:38;;;;;;;10.02;7.82;;;23.40;99.90;;;;;;6272544;22;20018;-71
2023/08/19 05:57:24;;;;;;;11.25;8.38;;;23.40;99.90;;;;;;6271016;22;20079;-70
2023/08/19 06:00:10;;;;;;;11.38;7.93;;;23.40;99.90;;;;;;6272744;22;20035;-71
2023/08/19 06:02:56;;;;;;;10.93;8.13;;;23.50;99.90;;;;;;6271682;22;20015;-70
2023/08/19 06:05:42;;;;;;;11.55;8.80;;;23.60;99.90;;;;;;6270343;22;20468;-69
2023/08/19 06:08:28;;;;;;;12.60;8.50;;;23.60;99.90;;;;;;6271760;22;20012;-69
2023/08/19 06:11:14;;;;;;;13.60;9.30;;;23.60;99.90;;;;;;6271387;22;20095;-70
2023/08/19 06:14:00;;;;;;;12.20;8.65;;;23.70;99.90;;;;;;6270925;22;20170;-71
2023/08/19 06:16:46;;;;;;;12.23;9.70;;;23.70;99.90;;;;;;6271541;22;20049;-69
2023/08/19 06:19:32;;;;;;;10.98;8.40;;;23.70;99.90;;;;;;6250134;22;20004;-71
2023/08/19 06:22:18;;;;;;;10.32;8.80;;;23.70;99.90;;;;;;6269759;22;20008;-69
2023/08/19 06:25:05;;;;;;;12.38;8.43;;;23.70;99.90;;;;;;6269233;22;20007;-69
2023/08/19 06:27:51;;;;;;;11.32;8.35;;;23.80;99.90;;;;;;6271432;22;20016;-69
2023/08/19 06:30:37;;;;;;;11.82;8.80;;;23.80;99.90;;;;;;6269584;22;20014;-69
2023/08/19 06:33:23;;;;;;;12.40;8.88;;;23.80;99.90;;;;;;6270603;22;20010;-69
2023/08/19 06:36:11;;;;;;;13.52;8.82;;;23.80;99.90;;;;;;6271458;22;20039;-70
2023/08/19 06:39:21;;;;;;;12.27;8.65;;;23.80;99.90;;;;;;6269082;22;20101;-68
2023/08/19 06:42:10;;;;;;;10.52;8.27;;;23.80;99.90;;;;;;6272588;22;20039;-69
2023/08/19 06:44:59;;;;;;;13.40;9.73;;;23.80;99.90;;;;;;6275219;22;20020;-69
2023/08/19 06:47:47;;;;;;;12.95;9.10;;;23.80;99.90;;;;;;6269960;22;20008;-69
2023/08/19 06:50:33;;;;;;;14.43;9.68;;;23.80;99.90;;;;;;6270987;22;20437;-69
2023/08/19 06:53:20;;;;;;;12.90;9.55;;;23.80;99.90;;;;;;6271266;22;20471;-69
2023/08/19 06:56:43;;;;;;;13.00;9.13;;;23.80;99.90;;;;;;6270977;22;20086;-69
2023/08/19 06:59:36;;;;;;;14.23;8.70;;;23.80;99.90;;;;;;6269305;22;20011;-69
2023/08/19 07:02:24;;;;;;;15.07;9.60;;;23.80;99.90;;;;;;6270389;22;20013;-69
2023/08/19 07:05:15;;;;;;;11.52;9.05;;;23.80;99.90;;;;;;6267743;22;20791;-69
2023/08/19 07:08:06;;;;;;;11.38;8.95;;;23.80;99.90;;;;;;6270225;22;20015;-69
2023/08/19 07:10:52;;;;;;;13.15;9.52;;;23.80;99.90;;;;;;6270942;22;20010;-69
2023/08/19 07:13:39;;;;;;;12.45;9.27;;;23.80;99.90;;;;;;6270677;22;20106;-69
2023/08/19 07:16:26;;;;;;;12.27;8.10;;;23.90;99.90;;;;;;6270919;22;20008;-69
2023/08/19 07:19:16;;;;;;;10.40;8.93;;;23.90;99.90;;;;;;6269493;22;20008;-70
2023/08/19 07:22:03;;;;;;;13.88;8.65;;;24.00;99.90;;;;;;6269612;22;20114;-69
2023/08/19 07:24:51;;;;;;;13.98;9.77;;;24.00;99.90;;;;;;6250066;22;20091;-70
2023/08/19 07:27:37;;;;;;;13.40;8.93;;;24.00;99.90;;;;;;6270233;22;20015;-69
2023/08/19 07:30:23;;;;;;;15.15;10.15;;;24.10;99.90;;;;;;6269679;22;20035;-70
2023/08/19 07:33:11;;;;;;;14.10;9.93;;;24.10;99.90;;;;;;6270744;22;20008;-70
2023/08/19 07:35:57;;;;;;;12.20;9.50;;;24.20;99.90;;;;;;6271696;22;20016;-70
2023/08/19 07:38:46;;;;;;;9.85;8.38;;;24.20;99.90;;;;;;6270398;22;20008;-70
2023/08/19 07:41:32;;;;;;;13.38;8.90;;;24.30;99.90;;;;;;6271140;22;20035;-70
2023/08/19 07:44:18;;;;;;;14.13;9.55;;;24.30;99.90;;;;;;6273257;22;20011;-69
2023/08/19 07:47:04;;;;;;;12.93;9.43;;;24.40;99.90;;;;;;6270070;22;20019;-69
2023/08/19 07:49:50;;;;;;;12.90;8.38;;;24.50;99.90;;;;;;6273000;22;20011;-70
2023/08/19 07:52:36;;;;;;;12.18;9.10;;;24.50;99.90;;;;;;6272636;22;20046;-70
2023/08/19 07:55:22;;;;;;;11.82;8.80;;;24.60;99.90;;;;;;6273173;22;20016;-70
2023/08/19 07:58:07;;;;;;;13.18;9.35;;;24.70;99.90;;;;;;6271567;22;20346;-70
2023/08/19 08:00:53;;;;;;;11.35;8.75;;;24.80;99.90;;;;;;6271485;22;20042;-67
2023/08/19 08:03:39;;;;;;;12.45;8.60;;;24.90;99.90;;;;;;6271537;22;20016;-69
2023/08/19 08:06:25;;;;;;;11.30;8.88;;;24.90;99.90;;;;;;6272402;22;20356;-67
2023/08/19 08:09:11;;;;;;;9.57;7.95;;;25.00;99.90;;;;;;6269379;22;20441;-67
2023/08/19 08:11:57;;;;;;;10.10;7.20;;;25.10;99.90;;;;;;6270417;22;20531;-70
2023/08/19 08:14:43;;;;;;;15.35;8.77;;;25.20;99.90;;;;;;6271669;22;20019;-69
2023/08/19 08:17:30;;;;;;;11.00;7.97;;;25.30;99.90;;;;;;6271748;22;20394;-67
2023/08/19 08:20:16;;;;;;;13.85;8.07;;;25.40;99.90;;;;;;6272751;22;20037;-68
2023/08/19 08:23:02;;;;;;;11.32;9.27;;;25.40;99.90;;;;;;6270129;22;20022;-69
2023/08/19 08:25:48;;;;;;;10.95;8.32;;;25.50;99.90;;;;;;6272031;22;20023;-71
2023/08/19 08:28:34;;;;;;;11.55;8.60;;;25.60;99.90;;;;;;6271400;22;20345;-72
2023/08/19 08:31:20;;;;;;;9.27;7.75;;;25.60;99.90;;;;;;6271571;22;20098;-71
2023/08/19 08:34:07;;;;;;;14.15;8.13;;;25.70;99.90;;;;;;6272348;22;20022;-72
2023/08/19 08:36:53;;;;;;;11.27;8.60;;;25.80;99.90;;;;;;6272012;22;20016;-72
2023/08/19 08:39:39;;;;;;;13.40;8.20;;;25.80;99.90;;;;;;6273344;22;20107;-72
2023/08/19 08:42:26;;;;;;;9.30;7.55;;;25.90;99.90;;;;;;6272279;22;20012;-73
2023/08/19 08:45:13;;;;;;;15.80;7.55;;;26.00;99.90;;;;;;6272593;22;20472;-72
2023/08/19 08:48:02;;;;;;;9.30;7.38;;;26.10;99.90;;;;;;6271236;22;20337;-72
2023/08/19 08:50:48;;;;;;;9.18;7.70;;;26.20;99.90;;;;;;6272103;22;20039;-72
2023/08/19 08:53:34;;;;;;;14.18;6.95;;;26.30;99.90;;;;;;6272293;22;20007;-73
2023/08/19 08:56:22;;;;;;;11.07;8.20;;;26.40;99.90;;;;;;6272396;22;20314;-72
2023/08/19 08:59:08;;;;;;;12.00;8.27;;;26.40;99.90;;;;;;6248670;22;20011;-72
2023/08/19 09:01:56;;;;;;;8.90;7.20;;;26.50;99.90;;;;;;6269871;22;20043;-69
2023/08/19 09:04:46;;;;;;;10.23;8.02;;;26.50;99.90;;;;;;6271927;22;20019;-72
2023/08/19 09:07:38;;;;;;;9.20;7.13;;;26.60;99.90;;;;;;6271648;22;20063;-69
2023/08/19 09:10:29;;;;;;;8.60;7.20;;;26.70;99.90;;;;;;6270443;22;20015;-71
2023/08/19 09:13:21;;;;;;;10.70;7.22;;;26.80;99.90;;;;;;6270998;22;20408;-70
2023/08/19 09:16:11;;;;;;;14.38;7.15;;;26.90;99.90;;;;;;6272021;22;20008;-70
2023/08/19 09:18:57;;;;;;;10.25;6.95;;;27.00;99.90;;;;;;6272095;22;20441;-70
2023/08/19 09:21:43;;;;;;;8.93;6.90;;;27.10;99.90;;;;;;6252859;22;20008;-70
2023/08/19 09:24:29;;;;;;;8.77;7.15;;;27.30;99.90;;;;;;6277954;22;20011;-69
2023/08/19 09:27:29;;;;;;;12.13;7.65;;;27.30;99.90;;;;;;6272165;22;20020;-68
2023/08/19 09:30:18;;;;;;;7.38;6.20;;;27.40;99.90;;;;;;6273240;22;20197;-70
2023/08/19 09:33:04;;;;;;;9.27;7.00;;;27.50;99.90;;;;;;6271961;22;20022;-69
2023/08/19 09:35:57;;;;;;;7.75;6.60;;;27.60;99.90;;;;;;6270798;22;20011;-69
2023/08/19 09:38:43;;;;;;;9.07;7.18;;;27.70;99.90;;;;;;6272850;22;20095;-69
2023/08/19 09:41:30;;;;;;;8.40;6.38;;;27.70;99.80;;;;;;6271740;22;20007;-69
2023/08/19 09:44:16;;;;;;;9.05;5.93;;;27.80;99.70;;;;;;6272607;22;20016;-69
2023/08/19 09:47:02;;;;;;;11.70;6.55;;;27.90;99.50;;;;;;6271577;22;20020;-69
2023/08/19 09:49:56;;;;;;;9.85;6.95;;;28.00;99.40;;;;;;6272676;22;20062;-69
2023/08/19 09:52:53;;;;;;;9.27;6.15;;;28.10;99.40;;;;;;6272321;22;20012;-69
2023/08/19 09:55:45;;;;;;;11.35;7.35;;;28.20;99.20;;;;;;6272634;22;20014;-69
2023/08/19 09:58:31;;;;;;;9.63;6.60;;;28.30;99.10;;;;;;6274174;22;20008;-68
2023/08/19 10:01:20;;;;;;;10.43;7.47;;;28.40;99.10;;;;;;6272711;22;20008;-68
2023/08/19 10:04:06;;;;;;;9.10;6.53;;;28.40;98.80;;;;;;6271863;22;20098;-68
2023/08/19 10:06:55;;;;;;;8.23;6.15;;;28.50;98.50;;;;;;6271883;22;20020;-68
2023/08/19 10:09:41;;;;;;;8.95;6.13;;;28.60;98.20;;;;;;6272375;22;20042;-68
2023/08/19 10:12:27;;;;;;;8.38;6.30;;;28.70;98.10;;;;;;6271663;22;20445;-68
2023/08/19 10:15:13;;;;;;;8.57;6.25;;;28.80;98.00;;;;;;6270189;22;20031;-68
2023/08/19 10:18:05;;;;;;;8.45;6.15;;;28.90;98.10;;;;;;6272105;22;20026;-68
2023/08/19 10:20:54;;;;;;;8.07;6.15;;;29.00;97.80;;;;;;6272390;22;20007;-68
2023/08/19 10:23:43;;;;;;;8.95;5.95;;;29.00;97.40;;;;;;6272261;22;20270;-68
2023/08/19 10:26:30;;;;;;;8.30;5.68;;;29.10;96.90;;;;;;6269431;22;20353;-69
2023/08/19 10:29:16;;;;;;;6.53;4.95;;;29.10;96.70;;;;;;6272612;22;20012;-70
2023/08/19 10:32:29;;;;;;;7.78;5.85;;;29.20;96.60;;;;;;6272068;22;20022;-70
2023/08/19 10:35:17;;;;;;;7.20;5.15;;;29.20;96.70;;;;;;6270708;22;20306;-70
2023/08/19 10:38:12;;;;;;;6.53;5.65;;;29.30;96.50;;;;;;6251003;22;20069;-70
2023/08/19 10:41:02;;;;;;;7.93;6.05;;;29.40;96.20;;;;;;6271209;22;20008;-70
2023/08/19 10:43:59;;;;;;;8.05;5.80;;;29.50;95.90;;;;;;6272802;22;20442;-69
2023/08/19 10:46:47;;;;;;;6.88;5.35;;;29.50;95.70;;;;;;6271357;22;20024;-69
2023/08/19 10:49:36;;;;;;;7.20;5.68;;;29.60;95.70;;;;;;6272228;22;20011;-68
2023/08/19 10:52:22;;;;;;;6.78;5.20;;;29.60;95.50;;;;;;6271897;22;20408;-70
2023/08/19 10:55:08;;;;;;;7.22;5.60;;;29.70;94.70;;;;;;6248723;22;20007;-70
2023/08/19 10:57:56;;;;;;;7.65;5.97;;;29.70;94.80;;;;;;6271843;22;20008;-70
2023/08/19 11:00:43;;;;;;;5.85;5.22;;;29.80;94.40;;;;;;6270433;22;20464;-69
2023/08/19 11:03:29;;;;;;;9.32;5.68;;;29.80;94.50;;;;;;6269723;22;20073;-69
2023/08/19 11:06:15;;;;;;;9.63;5.10;;;29.90;94.30;;;;;;6271496;22;20020;-68
2023/08/19 11:09:01;;;;;;;7.32;5.75;;;30.00;94.10;;;;;;6271801;22;20022;-69
2023/08/19 11:11:47;;;;;;;9.25;5.80;;;30.00;94.00;;;;;;6247647;22;20012;-68
2023/08/19 11:14:33;;;;;;;7.55;6.22;;;30.10;94.10;;;;;;6268334;22;20058;-68
2023/08/19 11:17:27;;;;;;;10.82;6.55;;;30.00;94.10;;;;;;6271665;22;20043;-68
2023/08/19 11:20:14;;;;;;;7.32;5.65;;;30.10;94.10;;;;;;6271891;22;20015;-71
2023/08/19 11:23:00;;;;;;;8.43;5.65;;;30.10;94.10;;;;;;6271263;22;20091;-70
2023/08/19 11:25:46;;;;;;;9.13;5.70;;;30.20;94.30;;;;;;6271571;22;20546;-71
2023/08/19 11:28:36;;;;;;;8.48;5.60;;;30.20;94.10;;;;;;6267605;22;20158;-71
2023/08/19 11:31:22;;;;;;;6.75;5.25;;;30.30;93.70;;;;;;6272119;22;20015;-69
2023/08/19 11:34:09;;;;;;;6.55;4.88;;;30.30;93.30;;;;;;6270594;22;20004;-70
2023/08/19 11:36:55;;;;;;;6.75;4.60;;;30.40;93.10;;;;;;6271888;22;20007;-67
2023/08/19 11:39:44;;;;;;;6.00;4.80;;;30.50;92.90;;;;;;6271216;22;20011;-68
2023/08/19 11:42:30;;;;;;;7.75;5.20;;;30.50;92.40;;;;;;6271653;22;20011;-68
2023/08/19 11:45:16;;;;;;;6.93;5.15;;;30.60;92.10;;;;;;6270082;22;20036;-67
2023/08/19 11:48:02;;;;;;;5.65;4.97;;;30.60;91.90;;;;;;6271400;22;20008;-67
2023/08/19 11:50:50;;;;;;;7.07;5.22;;;30.60;92.00;;;;;;6268294;22;20302;-69
2023/08/19 11:53:36;;;;;;;7.40;5.32;;;30.70;91.80;;;;;;6268157;22;20019;-71
2023/08/19 11:56:22;;;;;;;6.97;5.50;;;30.70;91.60;;;;;;6269615;22;20000;-70
2023/08/19 11:59:09;;;;;;;6.38;5.20;;;30.70;91.40;;;;;;6271516;22;20042;-70
2023/08/19 12:01:57;;;;;;;7.78;5.03;;;30.70;91.40;;;;;;6269872;22;20019;-69
2023/08/19 12:04:43;;;;;;;5.82;4.95;;;30.80;91.40;;;;;;6271705;22;20091;-68
2023/08/19 12:07:29;;;;;;;6.63;5.18;;;30.80;91.60;;;;;;6270833;22;20019;-67
2023/08/19 12:10:15;;;;;;;6.32;5.35;;;30.80;91.40;;;;;;6271514;22;20341;-67
2023/08/19 12:13:01;;;;;;;7.18;5.32;;;30.90;91.20;;;;;;6269265;22;20107;-68
2023/08/19 12:15:47;;;;;;;7.25;5.35;;;30.90;90.70;;;;;;6270727;22;20354;-67
2023/08/19 12:18:34;;;;;;;5.90;5.28;;;30.90;90.80;;;;;;6272280;22;20453;-68
2023/08/19 12:21:20;;;;;;;6.65;5.35;;;30.90;90.60;;;;;;6272138;22;20336;-68
2023/08/19 12:24:06;;;;;;;8.13;6.15;;;31.00;91.00;;;;;;6272805;22;20476;-68
2023/08/19 12:26:52;;;;;;;10.43;5.30;;;31.00;90.60;;;;;;6272482;22;20024;-67
2023/08/19 12:29:38;;;;;;;8.35;5.97;;;31.00;90.70;;;;;;6273037;22;20004;-67
2023/08/19 12:32:24;;;;;;;9.02;6.15;;;31.00;90.80;;;;;;6272736;22;20567;-68
2023/08/19 12:35:10;;;;;;;7.07;5.65;;;31.10;91.00;;;;;;6272269;22;20010;-68
2023/08/19 12:37:56;;;;;;;7.45;5.68;;;31.20;90.70;;;;;;6273398;22;20026;-68
2023/08/19 12:40:43;;;;;;;7.25;5.80;;;31.20;90.60;;;;;;6271030;22;20012;-69
2023/08/19 12:43:29;;;;;;;7.82;6.05;;;31.20;90.40;;;;;;6272382;22;20036;-77
2023/08/19 12:46:17;;;;;;;8.60;5.97;;;31.20;90.50;;;;;;6272286;22;20020;-74
2023/08/19 12:49:03;;;;;;;7.20;5.20;;;31.30;90.60;;;;;;6272945;22;20011;-74
2023/08/19 12:51:49;;;;;;;10.82;5.82;;;31.40;90.90;;;;;;6270384;22;20011;-77
2023/08/19 12:54:35;;;;;;;9.48;5.15;;;31.50;90.40;;;;;;6272320;22;20091;-76
2023/08/19 12:57:21;;;;;;;7.35;5.38;;;31.60;90.20;;;;;;6272085;22;20031;-74
2023/08/19 13:00:08;;;;;;;7.97;5.90;;;31.60;89.30;;;;;;6270985;22;20003;-68
2023/08/19 13:02:56;;;;;;;8.77;5.88;;;31.80;89.80;;;;;;6271910;22;20007;-72
2023/08/19 13:05:42;;;;;;;6.13;5.20;;;31.90;89.80;;;;;;6272433;22;20022;-69
2023/08/19 13:08:28;;;;;;;6.80;5.07;;;31.90;89.50;;;;;;6272156;22;20057;-80
2023/08/19 13:11:14;;;;;;;7.22;5.28;;;31.90;87.60;;;;;;6272360;22;20012;-74
2023/08/19 13:14:00;;;;;;;6.00;4.80;;;32.10;87.20;;;;;;6271347;22;20077;-75
2023/08/19 13:16:45;;;;;;;4.85;4.05;;;32.20;84.90;;;;;;6272992;22;20102;-75
2023/08/19 13:19:33;;;;;;;6.50;4.75;;;32.20;84.20;;;;;;6272029;22;20003;-75
2023/08/19 13:22:21;;;;;;;5.72;4.93;;;32.30;83.70;;;;;;6271840;22;20337;-74
2023/08/19 13:25:07;;;;;;;6.38;5.15;;;32.40;84.80;;;;;;6269885;22;20012;-74
2023/08/19 13:27:53;;;;;;;6.53;5.00;;;32.40;84.50;;;;;;6270362;22;20399;-74
2023/08/19 13:30:39;;;;;;;7.20;4.38;;;32.50;84.20;;;;;;6271228;22;20421;-74
2023/08/19 13:33:25;;;;;;;7.72;4.40;;;32.50;83.10;;;;;;6272607;22;20099;-74
2023/08/19 13:36:11;;;;;;;5.82;4.25;;;32.60;81.90;;;;;;6272742;22;20008;-73
2023/08/19 13:38:57;;;;;;;5.40;3.80;;;32.60;82.10;;;;;;6272668;22;20012;-71
2023/08/19 13:41:43;;;;;;;5.57;4.30;;;32.60;81.40;;;;;;6272519;22;20272;-68
2023/08/19 13:44:29;;;;;;;5.78;4.30;;;32.70;80.10;;;;;;6272189;22;20011;-66
2023/08/19 13:47:15;;;;;;;7.35;4.88;;;32.80;79.30;;;;;;6272214;22;20335;-68
2023/08/19 13:50:01;;;;;;;4.95;4.15;;;32.90;80.30;;;;;;6270342;22;20007;-68
2023/08/19 13:52:47;;;;;;;5.43;4.28;;;32.90;79.60;;;;;;6270757;22;20007;-66
2023/08/19 13:55:33;;;;;;;5.90;4.80;;;33.00;78.90;;;;;;6271830;22;20031;-66
2023/08/19 13:58:19;;;;;;;6.30;4.35;;;33.00;79.00;;;;;;6272236;22;20011;-67
2023/08/19 14:01:07;;;;;;;7.10;4.95;;;33.00;79.20;;;;;;6273042;22;20012;-68
2023/08/19 14:03:53;;;;;;;8.85;5.10;;;33.00;79.30;;;;;;6249738;22;20008;-68
2023/08/19 14:06:39;;;;;;;6.25;4.13;;;33.10;78.80;;;;;;6247139;22;20029;-68
2023/08/19 14:09:25;;;;;;;6.30;4.47;;;33.10;77.70;;;;;;6272832;22;20018;-68
2023/08/19 14:12:11;;;;;;;6.07;4.65;;;33.20;77.90;;;;;;6272479;22;20073;-68
2023/08/19 14:14:56;;;;;;;5.18;4.00;;;33.30;77.90;;;;;;6272705;22;20006;-68
2023/08/19 14:17:42;;;;;;;6.68;3.80;;;33.40;77.20;;;;;;6272195;22;20117;-68
2023/08/19 14:20:28;;;;;;;5.90;4.35;;;33.40;76.60;;;;;;6272353;22;20014;-68
2023/08/19 14:23:14;;;;;;;5.82;3.90;;;33.50;75.90;;;;;;6246601;22;20016;-68
2023/08/19 14:26:00;;;;;;;5.07;4.30;;;33.50;75.40;;;;;;6272245;22;20170;-68